Time;durP1;ratioP1;P1;durP2;ratioP2;P2;SDS_P1;SDS_P2;PMS_P1;PMS_P2;Temp;Humidity;BMP_temperature;BMP_pressure;BME280_temperature;BME280_humidity;BME280_pressure;Samples;Min_cycle;Max_cycle;Signal;HPM_P1;HPM_P2
2022/07/13 00:02:14;;;;;;;14.40;2.85;;;;;;;-144.47;47.69;53203.69;4973622;28;20048;-64
2022/07/13 00:04:39;;;;;;;13.40;3.25;;;;;;;-144.47;47.83;53207.66;4990171;28;20084;-65
2022/07/13 00:07:05;;;;;;;9.55;3.40;;;;;;;-144.47;47.93;53189.78;4973329;28;20038;-61
2022/07/13 00:09:30;;;;;;;11.40;3.38;;;;;;;-144.47;48.59;53161.97;4981824;28;20081;-65
2022/07/13 00:11:55;;;;;;;15.07;3.40;;;;;;;-144.47;48.77;53195.75;4987264;28;20019;-63
2022/07/13 00:14:21;;;;;;;11.98;3.20;;;;;;;-144.47;48.98;53177.88;4986691;28;20042;-65
2022/07/13 00:16:46;;;;;;;28.25;3.55;;;;;;;-144.47;49.06;53169.91;4985803;28;20027;-63
2022/07/13 00:19:11;;;;;;;6.53;2.75;;;;;;;-144.47;49.66;53191.78;4979992;28;20455;-65
2022/07/13 00:21:37;;;;;;;19.13;2.92;;;;;;;-144.47;49.63;53203.69;4977303;28;20042;-65
2022/07/13 00:24:02;;;;;;;7.30;3.10;;;;;;;-144.47;49.85;53179.84;4988504;28;20022;-65
2022/07/13 00:26:28;;;;;;;11.18;3.08;;;;;;;-144.47;49.82;53158.00;4985271;28;20037;-66
2022/07/13 00:28:54;;;;;;;19.70;4.13;;;;;;;-144.47;49.38;53169.91;4971633;28;20073;-66
2022/07/13 00:31:19;;;;;;;21.58;5.07;;;;;;;-144.47;49.33;53175.88;4969070;28;20189;-66
2022/07/13 00:33:44;;;;;;;11.27;3.78;;;;;;;-144.47;49.51;53179.84;4971831;28;20117;-64
2022/07/13 00:36:10;;;;;;;10.55;3.60;;;;;;;-144.47;49.61;53207.66;4985832;28;20110;-65
2022/07/13 00:38:35;;;;;;;23.60;3.90;;;;;;;-144.47;49.33;53237.44;4978096;28;20469;-64
2022/07/13 00:41:04;;;;;;;16.38;3.20;;;;;;;-144.47;49.46;53181.84;4982159;28;20027;-65
2022/07/13 00:43:29;;;;;;;12.18;3.53;;;;;;;-144.47;49.45;53209.66;4981106;28;20427;-64
2022/07/13 00:45:54;;;;;;;8.50;2.97;;;;;;;-144.47;49.43;53217.59;4975105;28;20073;-63
2022/07/13 00:48:20;;;;;;;12.90;2.97;;;;;;;-144.47;49.28;53181.84;4978127;28;20037;-65
2022/07/13 00:50:45;;;;;;;9.23;2.70;;;;;;;-144.47;48.96;53189.78;4987286;28;20096;-62
2022/07/13 00:53:11;;;;;;;10.80;3.30;;;;;;;-144.47;48.92;53181.84;4978672;28;20029;-65
2022/07/13 00:55:37;;;;;;;8.80;2.72;;;;;;;-144.47;48.56;53191.78;4973596;28;20033;-64
2022/07/13 00:58:03;;;;;;;17.83;3.20;;;;;;;-144.47;48.54;53191.78;4989057;28;20026;-65
2022/07/13 01:00:28;;;;;;;6.95;2.58;;;;;;;-144.47;48.74;53203.69;4984202;28;20027;-65
2022/07/13 01:02:53;;;;;;;7.03;2.67;;;;;;;-144.47;48.13;53146.09;4979598;28;20480;-62
2022/07/13 01:05:19;;;;;;;7.70;2.90;;;;;;;-144.47;48.30;53158.00;4975656;28;20499;-64
2022/07/13 01:07:45;;;;;;;8.02;2.53;;;;;;;-144.47;48.36;53167.94;4988956;28;20454;-64
2022/07/13 01:10:12;;;;;;;9.57;2.60;;;;;;;-144.47;48.05;53177.88;4970945;28;20030;-63
2022/07/13 01:12:38;;;;;;;26.58;3.50;;;;;;;-144.47;47.94;53163.97;4979874;28;20038;-64
2022/07/13 01:15:04;;;;;;;7.50;2.33;;;;;;;-144.47;47.91;53213.63;4970748;28;20109;-64
2022/07/13 01:17:31;;;;;;;8.15;2.40;;;;;;;-144.47;47.60;53211.63;4968689;28;20524;-64
2022/07/13 01:19:57;;;;;;;9.68;2.97;;;;;;;-144.47;48.07;53201.69;4973986;28;20081;-63
2022/07/13 01:22:29;;;;;;;6.13;2.58;;;;;;;-144.47;47.99;53177.88;4988494;28;20313;-60
2022/07/13 01:24:55;;;;;;;10.27;3.30;;;;;;;-144.47;47.79;53181.84;4988810;28;20033;-62
2022/07/13 01:27:21;;;;;;;5.35;2.65;;;;;;;-144.47;47.62;53197.72;4976348;28;20057;-63
2022/07/13 01:29:46;;;;;;;6.97;2.83;;;;;;;-144.47;47.63;53163.97;4969809;28;20050;-61
2022/07/13 01:32:12;;;;;;;8.73;2.95;;;;;;;-144.47;47.74;53169.91;4986264;28;20034;-64
2022/07/13 01:34:37;;;;;;;6.60;2.97;;;;;;;-144.47;47.79;53173.88;4979399;28;20110;-62
2022/07/13 01:37:03;;;;;;;15.23;3.05;;;;;;;-144.47;47.54;53163.97;4987848;28;20122;-65
2022/07/13 01:39:28;;;;;;;6.15;2.83;;;;;;;-144.47;47.53;53177.88;4992576;28;20029;-65
2022/07/13 01:41:54;;;;;;;14.32;2.63;;;;;;;-144.47;47.36;53189.78;4975831;28;20026;-64
2022/07/13 01:44:19;;;;;;;9.40;2.03;;;;;;;-144.47;47.63;53185.81;4982428;28;20026;-65
2022/07/13 01:46:45;;;;;;;7.45;2.33;;;;;;;-144.47;47.77;53193.75;4988886;28;20030;-62
2022/07/13 01:49:11;;;;;;;11.40;2.55;;;;;;;-144.47;47.84;53173.88;4982409;28;20034;-65
2022/07/13 01:51:36;;;;;;;5.63;2.10;;;;;;;-144.47;47.92;53187.78;4979781;28;20023;-65
2022/07/13 01:54:02;;;;;;;9.63;2.60;;;;;;;-144.47;48.10;53144.09;4993011;28;20202;-65
2022/07/13 01:56:27;;;;;;;6.90;2.17;;;;;;;-144.47;48.11;53195.75;4978416;28;20523;-64
2022/07/13 01:58:53;;;;;;;9.55;2.20;;;;;;;-144.47;48.24;53169.91;4992902;28;20026;-64
2022/07/13 02:01:18;;;;;;;8.98;2.28;;;;;;;-144.47;48.06;53144.09;4976728;28;20453;-66
2022/07/13 02:03:43;;;;;;;4.57;1.90;;;;;;;-144.47;48.10;53132.19;4981772;28;20054;-66
2022/07/13 02:06:09;;;;;;;7.47;2.40;;;;;;;-144.47;48.15;53197.72;4976490;28;20774;-66
2022/07/13 02:08:34;;;;;;;8.77;2.22;;;;;;;-144.47;48.22;53215.59;4979689;28;20023;-61
2022/07/13 02:11:00;;;;;;;9.63;2.45;;;;;;;-144.47;47.92;53185.81;4986561;28;20026;-63
2022/07/13 02:13:25;;;;;;;11.95;2.45;;;;;;;-144.47;48.09;53152.03;4983599;28;20015;-64
2022/07/13 02:15:51;;;;;;;6.10;2.40;;;;;;;-144.47;48.14;53221.56;4987878;28;20033;-63
2022/07/13 02:18:17;;;;;;;5.38;2.28;;;;;;;-144.47;48.17;53185.81;4984147;28;20033;-64
2022/07/13 02:20:42;;;;;;;5.45;2.13;;;;;;;-144.47;48.19;53185.81;4974710;28;20033;-62
2022/07/13 02:23:07;;;;;;;14.15;3.22;;;;;;;-144.47;48.44;53171.91;4984111;28;20480;-64
2022/07/13 02:25:33;;;;;;;5.38;2.58;;;;;;;-144.47;48.56;53171.91;4987725;28;20635;-64
2022/07/13 02:27:59;;;;;;;6.30;2.53;;;;;;;-144.47;48.72;53142.09;4973963;28;20027;-64
2022/07/13 02:30:24;;;;;;;6.65;2.60;;;;;;;-144.47;48.51;53160.00;4973763;28;20041;-64
2022/07/13 02:32:50;;;;;;;5.45;2.15;;;;;;;-144.47;48.32;53193.75;4991769;28;20019;-64
2022/07/13 02:35:15;;;;;;;7.93;2.28;;;;;;;-144.47;48.49;53201.69;4976408;28;20030;-64
2022/07/13 02:37:41;;;;;;;6.95;4.05;;;;;;;-144.47;48.33;53187.78;4972170;28;20029;-62
2022/07/13 02:40:09;;;;;;;4.25;1.92;;;;;;;-144.47;48.33;53183.81;4985568;28;20113;-64
2022/07/13 02:42:34;;;;;;;7.25;1.92;;;;;;;-144.47;48.24;53154.03;4971954;28;20480;-64
2022/07/13 02:45:00;;;;;;;4.93;2.15;;;;;;;-144.47;48.31;53167.94;4973997;28;20050;-64
2022/07/13 02:47:25;;;;;;;4.70;1.75;;;;;;;-144.47;48.39;53209.66;4986888;28;20023;-64
2022/07/13 02:49:51;;;;;;;16.83;8.90;;;;;;;-144.47;48.42;53195.75;4974687;28;20027;-63
2022/07/13 02:52:16;;;;;;;7.15;3.42;;;;;;;-144.47;48.52;53179.84;4983105;28;20547;-64
2022/07/13 02:54:42;;;;;;;6.97;2.38;;;;;;;-144.47;48.61;53144.09;4971394;28;20114;-64
2022/07/13 02:57:08;;;;;;;10.50;3.35;;;;;;;-144.47;48.70;53197.72;4979594;28;20487;-64
2022/07/13 02:59:36;;;;;;;12.50;4.00;;;;;;;-144.47;48.83;53173.88;4989180;28;20024;-64
2022/07/13 03:02:02;;;;;;;8.73;2.80;;;;;;;-144.47;48.80;53201.69;4998235;23;20157;-70
2022/07/13 03:04:28;;;;;;;6.00;2.50;;;;;;;-144.47;48.93;53163.97;5001251;28;20026;-73
2022/07/13 03:06:54;;;;;;;6.68;2.80;;;;;;;-144.47;48.94;53130.19;4987793;28;20438;-72
2022/07/13 03:09:19;;;;;;;7.63;2.63;;;;;;;-144.47;49.13;53160.00;5009135;28;20071;-71
2022/07/13 03:11:45;;;;;;;7.47;2.55;;;;;;;-144.47;49.33;53171.91;4998810;28;20177;-72
2022/07/13 03:14:10;;;;;;;6.65;2.50;;;;;;;-144.47;49.23;53181.84;4995304;28;20088;-70
2022/07/13 03:16:35;;;;;;;9.82;3.00;;;;;;;-144.47;49.40;53197.72;4982068;28;20102;-70
2022/07/13 03:19:01;;;;;;;6.90;2.58;;;;;;;-144.47;49.46;53156.00;4985582;28;20171;-68
2022/07/13 03:21:28;;;;;;;6.88;2.95;;;;;;;-144.47;49.43;53177.88;4998990;28;20030;-71
2022/07/13 03:23:57;;;;;;;15.87;3.07;;;;;;;-144.47;49.47;53173.88;5011281;28;20038;-70
2022/07/13 03:26:23;;;;;;;4.68;2.00;;;;;;;-144.47;49.42;53158.00;4999678;28;20018;-68
2022/07/13 03:28:49;;;;;;;5.18;2.40;;;;;;;-144.47;49.48;53167.94;4989530;28;20026;-71
2022/07/13 03:31:14;;;;;;;5.95;2.60;;;;;;;-144.47;49.54;53205.66;5009687;28;20037;-70
2022/07/13 03:33:39;;;;;;;8.40;2.90;;;;;;;-144.47;49.79;53169.91;4999903;28;20507;-69
2022/07/13 03:36:06;;;;;;;20.50;4.25;;;;;;;-144.47;50.05;53209.66;5009455;28;20412;-69
2022/07/13 03:38:31;;;;;;;11.90;3.13;;;;;;;-144.47;50.26;53207.66;4982864;28;20057;-70
2022/07/13 03:40:57;;;;;;;8.52;2.85;;;;;;;-144.47;50.05;53169.91;4983256;28;20058;-70
2022/07/13 03:43:22;;;;;;;10.98;3.10;;;;;;;-144.47;50.11;53205.66;5004758;28;20445;-71
2022/07/13 03:45:48;;;;;;;10.00;2.42;;;;;;;-144.47;50.43;53189.78;5009068;28;20108;-70
2022/07/13 03:48:16;;;;;;;9.57;2.80;;;;;;;-144.47;50.52;53160.00;5008176;28;20509;-72
2022/07/13 03:50:42;;;;;;;19.25;3.58;;;;;;;-144.47;50.63;53181.84;5000579;28;20503;-71
2022/07/13 03:53:07;;;;;;;9.35;3.00;;;;;;;-144.47;50.67;53189.78;4979927;28;20027;-70
2022/07/13 03:55:33;;;;;;;18.90;2.72;;;;;;;-144.47;50.78;53165.94;5001565;28;20344;-71
2022/07/13 03:57:59;;;;;;;9.25;2.38;;;;;;;-144.47;50.81;53165.94;4987892;28;20067;-70
2022/07/13 04:00:24;;;;;;;15.55;3.30;;;;;;;-144.47;50.92;53189.78;4975007;28;20045;-70
2022/07/13 04:02:49;;;;;;;8.77;2.47;;;;;;;-144.47;50.81;53193.75;4997059;28;20033;-71
2022/07/13 04:05:15;;;;;;;9.45;2.53;;;;;;;-144.47;50.97;53177.88;4987127;28;20030;-71
2022/07/13 04:07:40;;;;;;;5.60;2.80;;;;;;;-144.47;51.03;53163.97;5007605;28;20253;-69
2022/07/13 04:10:06;;;;;;;12.05;2.88;;;;;;;-144.47;51.15;53227.53;4993751;28;20033;-70
2022/07/13 04:12:32;;;;;;;10.45;3.28;;;;;;;-144.47;51.20;53146.09;4991256;28;20022;-72
2022/07/13 04:14:57;;;;;;;9.23;2.67;;;;;;;-144.47;51.12;53193.75;4982406;28;20037;-71
2022/07/13 04:17:22;;;;;;;11.43;3.05;;;;;;;-144.47;51.29;53221.56;5004827;28;20022;-71
2022/07/13 04:19:48;;;;;;;16.55;3.30;;;;;;;-144.47;51.37;53203.69;5010046;28;20076;-71
2022/07/13 04:22:13;;;;;;;15.48;3.10;;;;;;;-144.47;51.33;53201.69;5007178;28;20680;-70
2022/07/13 04:24:38;;;;;;;5.28;2.50;;;;;;;-144.47;51.28;53158.00;4990010;28;20033;-70
2022/07/13 04:27:04;;;;;;;20.17;4.10;;;;;;;-144.47;51.50;53209.66;4989748;28;20503;-68
2022/07/13 04:29:29;;;;;;;13.63;2.97;;;;;;;-144.47;51.72;53169.91;4996979;28;20399;-68
2022/07/13 04:31:54;;;;;;;17.85;3.53;;;;;;;-144.47;51.75;53169.91;5009438;28;20391;-71
2022/07/13 04:34:20;;;;;;;10.27;4.00;;;;;;;-144.47;51.94;53191.78;4991557;28;20409;-70
2022/07/13 04:36:45;;;;;;;14.02;3.30;;;;;;;-144.47;52.38;53187.78;4998240;28;20022;-72
2022/07/13 04:39:12;;;;;;;10.60;3.35;;;;;;;-144.47;52.39;53171.91;4996024;28;20434;-70
2022/07/13 04:41:37;;;;;;;19.15;4.25;;;;;;;-144.47;52.40;53169.91;4995226;28;20030;-72
2022/07/13 04:44:03;;;;;;;11.55;3.28;;;;;;;-144.47;52.24;53161.97;5001875;28;20053;-69
2022/07/13 04:46:28;;;;;;;30.88;3.95;;;;;;;-144.47;52.30;53160.00;5001886;28;20030;-71
2022/07/13 04:48:54;;;;;;;9.68;3.60;;;;;;;-144.47;52.14;53161.97;4989862;28;20057;-74
2022/07/13 04:51:19;;;;;;;11.80;2.65;;;;;;;-144.47;52.10;53233.47;5002713;28;20030;-71
2022/07/13 04:53:45;;;;;;;15.48;2.30;;;;;;;-144.47;52.22;53221.56;4994466;28;20030;-72
2022/07/13 04:56:11;;;;;;;11.40;2.70;;;;;;;-144.47;51.95;53181.84;4984966;28;20026;-70
2022/07/13 04:58:36;;;;;;;11.68;2.63;;;;;;;-144.47;51.79;53205.66;5001133;28;20420;-73
2022/07/13 05:01:04;;;;;;;8.45;2.83;;;;;;;-144.47;51.91;53158.00;4992539;28;20099;-70
2022/07/13 05:03:30;;;;;;;13.73;3.28;;;;;;;-144.47;51.75;53160.00;4990354;28;20026;-70
2022/07/13 05:05:55;;;;;;;10.02;2.83;;;;;;;-144.47;51.44;53148.06;4994548;28;20034;-71
2022/07/13 05:08:21;;;;;;;7.13;2.30;;;;;;;-144.47;51.29;53181.84;4997541;28;20030;-72
2022/07/13 05:10:46;;;;;;;17.00;3.50;;;;;;;-144.47;50.95;53165.94;4997023;28;20118;-71
2022/07/13 05:13:11;;;;;;;13.30;3.00;;;;;;;-144.47;50.63;53183.81;4997652;28;20503;-71
2022/07/13 05:15:37;;;;;;;11.68;3.20;;;;;;;-144.47;50.54;53171.91;4974236;28;20502;-70
2022/07/13 05:18:02;;;;;;;5.93;2.22;;;;;;;-144.47;50.28;53167.94;4986781;28;20018;-68
2022/07/13 05:20:27;;;;;;;10.63;3.00;;;;;;;-144.47;49.93;53175.88;4999529;28;20026;-70
2022/07/13 05:22:53;;;;;;;5.40;2.30;;;;;;;-144.47;49.64;53171.91;4986926;28;20101;-71
2022/07/13 05:25:18;;;;;;;9.05;2.63;;;;;;;-144.47;49.66;53161.97;4991392;28;20065;-70
2022/07/13 05:27:44;;;;;;;11.90;2.88;;;;;;;-144.47;49.30;53193.75;4985018;28;20108;-72
2022/07/13 05:30:09;;;;;;;9.43;2.92;;;;;;;-144.47;49.33;53173.88;4997735;28;20495;-69
2022/07/13 05:32:34;;;;;;;19.48;3.05;;;;;;;-144.47;49.36;53179.84;5007904;28;20041;-71
2022/07/13 05:35:01;;;;;;;13.60;2.60;;;;;;;-144.47;49.11;53167.94;4984812;28;20102;-71
2022/07/13 05:37:26;;;;;;;14.30;2.70;;;;;;;-144.47;48.94;53136.16;4990148;28;20055;-70
2022/07/13 05:39:52;;;;;;;10.07;2.95;;;;;;;-144.47;48.61;53167.94;4979149;28;20054;-67
2022/07/13 05:42:17;;;;;;;10.73;2.42;;;;;;;-144.47;48.63;53173.88;4986408;28;20058;-67
2022/07/13 05:44:42;;;;;;;19.17;2.95;;;;;;;-144.47;48.12;53175.88;4982345;28;20026;-67
2022/07/13 05:47:08;;;;;;;9.02;2.38;;;;;;;-144.47;48.08;53146.09;5000095;28;20495;-69
2022/07/13 05:49:33;;;;;;;20.38;2.78;;;;;;;-144.47;47.44;53167.94;5007949;28;20022;-68
2022/07/13 05:51:59;;;;;;;17.15;2.28;;;;;;;-144.47;47.49;53163.97;5003687;28;20480;-69
2022/07/13 05:54:24;;;;;;;22.13;2.90;;;;;;;-144.47;47.60;53158.00;5004686;28;20465;-69
2022/07/13 05:56:50;;;;;;;10.27;2.35;;;;;;;-144.47;47.61;53144.09;4983459;28;20033;-68
2022/07/13 05:59:15;;;;;;;18.10;2.38;;;;;;;-144.47;47.40;53185.81;4995861;28;20018;-70
2022/07/13 06:01:41;;;;;;;9.30;2.47;;;;;;;-144.47;47.34;53146.09;5010916;28;20040;-68
2022/07/13 06:04:06;;;;;;;15.02;3.17;;;;;;;-144.47;46.92;53199.72;4990424;28;20473;-67
2022/07/13 06:06:31;;;;;;;12.45;3.05;;;;;;;-144.47;46.90;53158.00;4991169;28;20021;-69
2022/07/13 06:08:57;;;;;;;16.95;3.28;;;;;;;-144.47;47.19;53118.28;5011698;28;20033;-70
2022/07/13 06:11:22;;;;;;;10.35;3.40;;;;;;;-144.47;47.00;53144.09;5003170;28;20073;-68
2022/07/13 06:13:47;;;;;;;15.13;2.72;;;;;;;-144.47;46.62;53154.03;4995737;28;20022;-71
2022/07/13 06:16:13;;;;;;;14.50;4.13;;;;;;;-144.47;45.97;53150.06;4992420;28;20030;-71
2022/07/13 06:18:38;;;;;;;8.48;2.38;;;;;;;-144.47;45.95;53132.19;5002663;28;20440;-67
2022/07/13 06:21:04;;;;;;;17.52;3.05;;;;;;;-144.47;45.79;53136.16;4980498;28;20029;-70
2022/07/13 06:23:29;;;;;;;11.43;2.45;;;;;;;-144.47;45.73;53154.03;4977959;28;20046;-67
2022/07/13 06:25:55;;;;;;;6.25;2.13;;;;;;;-144.47;45.58;53132.19;4994390;28;20106;-69
2022/07/13 06:28:20;;;;;;;16.65;2.53;;;;;;;-144.47;45.19;53140.13;4973345;28;20023;-73
2022/07/13 06:30:45;;;;;;;17.40;3.40;;;;;;;-144.47;44.73;53122.25;5008240;28;20037;-69
2022/07/13 06:33:11;;;;;;;14.85;2.35;;;;;;;-144.47;44.62;53130.19;4994310;28;20019;-69
2022/07/13 06:35:36;;;;;;;11.18;3.13;;;;;;;-144.47;43.74;53142.09;4991577;28;20101;-69
2022/07/13 06:38:02;;;;;;;21.33;2.38;;;;;;;-144.47;43.52;53104.38;5001349;28;20018;-68
2022/07/13 06:40:28;;;;;;;25.15;2.47;;;;;;;-144.47;42.91;53144.09;4997484;28;20029;-70
2022/07/13 06:42:53;;;;;;;11.30;2.00;;;;;;;-144.47;42.41;53156.00;5010873;28;20029;-69
2022/07/13 06:45:21;;;;;;;12.07;2.22;;;;;;;-144.47;42.16;53167.94;5011149;28;20021;-71
2022/07/13 06:47:46;;;;;;;6.93;1.95;;;;;;;-144.47;41.60;53114.31;5011030;28;20026;-69
2022/07/13 06:50:12;;;;;;;8.80;2.13;;;;;;;-144.47;41.58;53090.47;5001370;28;20030;-69
2022/07/13 06:52:37;;;;;;;8.25;2.42;;;;;;;-144.47;41.33;53124.22;4983499;28;20546;-69
2022/07/13 06:55:04;;;;;;;8.48;1.60;;;;;;;-144.47;40.67;53124.22;5005099;28;20472;-71
2022/07/13 06:57:30;;;;;;;3.38;1.65;;;;;;;-144.47;40.05;53094.44;4994836;28;20022;-69
2022/07/13 06:59:55;;;;;;;10.35;2.00;;;;;;;-144.47;39.83;53134.16;4994189;28;20427;-69
2022/07/13 07:02:21;;;;;;;4.57;1.65;;;;;;;-144.47;39.21;53088.47;4977523;28;20942;-69
2022/07/13 07:04:46;;;;;;;9.95;2.20;;;;;;;-144.47;38.60;53116.28;4973544;28;20076;-69
2022/07/13 07:07:12;;;;;;;6.20;1.60;;;;;;;-144.47;38.61;53136.16;4972045;28;20069;-69
2022/07/13 07:09:37;;;;;;;3.22;1.48;;;;;;;-144.47;38.54;53112.31;4974147;28;20106;-68
2022/07/13 07:12:03;;;;;;;18.00;2.30;;;;;;;-144.47;38.99;53108.34;4979026;28;20052;-69
2022/07/13 07:14:32;;;;;;;3.40;1.55;;;;;;;-144.47;38.82;53171.91;4986619;28;20546;-69
2022/07/13 07:16:59;;;;;;;8.90;1.92;;;;;;;-144.47;38.71;53084.50;4970853;28;20033;-67
2022/07/13 07:19:24;;;;;;;4.65;2.15;;;;;;;-144.47;38.49;53070.59;4974572;28;20387;-69
2022/07/13 07:21:50;;;;;;;9.20;2.25;;;;;;;-144.47;38.83;53082.53;4980080;28;20114;-67
2022/07/13 07:24:15;;;;;;;6.97;1.88;;;;;;;-144.47;39.48;53116.28;4974830;28;20023;-71
2022/07/13 07:26:40;;;;;;;5.88;1.85;;;;;;;-144.47;39.54;53122.25;4990888;28;20113;-69
2022/07/13 07:29:06;;;;;;;4.75;1.85;;;;;;;-144.47;39.74;53102.38;4991449;28;20664;-70
2022/07/13 07:31:31;;;;;;;9.50;1.83;;;;;;;-144.47;39.98;53120.25;4993008;28;20029;-70
2022/07/13 07:33:56;;;;;;;7.63;2.33;;;;;;;-144.47;40.17;53088.47;4992621;28;20041;-68
2022/07/13 07:36:22;;;;;;;6.88;2.17;;;;;;;-144.47;40.56;53120.25;5010192;28;20026;-69
2022/07/13 07:38:47;;;;;;;9.95;1.90;;;;;;;-144.47;40.48;53090.47;4990418;28;20081;-71
2022/07/13 07:41:13;;;;;;;6.40;1.85;;;;;;;-144.47;40.70;53094.44;4985146;28;20409;-67
2022/07/13 07:43:38;;;;;;;11.55;2.20;;;;;;;-144.47;40.80;53096.41;5001449;28;20428;-68
2022/07/13 07:46:04;;;;;;;20.27;2.70;;;;;;;-144.47;40.66;53074.56;5000326;28;20026;-71
2022/07/13 07:48:29;;;;;;;7.60;2.00;;;;;;;-144.47;40.50;53078.53;4996737;28;20033;-66
2022/07/13 07:50:55;;;;;;;13.77;2.50;;;;;;;-144.47;40.09;53086.50;5009681;28;20502;-68
2022/07/13 07:53:21;;;;;;;6.43;1.70;;;;;;;-144.47;39.09;53076.56;4980601;28;20026;-70
2022/07/13 07:55:46;;;;;;;11.70;1.70;;;;;;;-144.47;38.30;53070.59;4990483;28;20026;-69
2022/07/13 07:58:13;;;;;;;4.60;1.63;;;;;;;-144.47;38.62;53062.66;5006112;28;20050;-68
2022/07/13 08:00:39;;;;;;;12.80;2.10;;;;;;;-144.47;38.86;53084.50;4999839;28;20352;-67
2022/07/13 08:03:05;;;;;;;6.63;1.88;;;;;;;-144.47;38.57;53090.47;5002899;28;20037;-69
2022/07/13 08:05:30;;;;;;;14.10;2.40;;;;;;;-144.47;38.25;53054.72;5000055;28;20471;-66
2022/07/13 08:07:56;;;;;;;11.80;1.85;;;;;;;-144.47;37.98;53080.53;4983012;28;20029;-68
2022/07/13 08:10:22;;;;;;;4.60;1.75;;;;;;;-144.47;37.75;53072.59;4999388;28;20027;-68
2022/07/13 08:12:47;;;;;;;9.00;2.70;;;;;;;-144.47;37.61;53044.78;4983304;28;20053;-67
2022/07/13 08:15:12;;;;;;;11.82;1.85;;;;;;;-144.47;37.45;53074.56;4992350;28;20408;-67
2022/07/13 08:17:39;;;;;;;6.68;1.90;;;;;;;-144.47;36.41;53062.66;4990954;28;20109;-68
2022/07/13 08:20:05;;;;;;;23.42;2.05;;;;;;;-144.47;36.23;53060.66;4977228;28;20034;-69
2022/07/13 08:22:30;;;;;;;6.30;1.52;;;;;;;-144.47;36.01;53034.84;4972946;28;20097;-71
2022/07/13 08:24:55;;;;;;;3.50;1.60;;;;;;;-144.47;35.83;53058.69;4975256;28;20044;-69
2022/07/13 08:27:21;;;;;;;6.05;1.80;;;;;;;-144.47;35.49;53046.75;4978135;28;20056;-68
2022/07/13 08:29:46;;;;;;;6.28;1.60;;;;;;;-144.47;35.21;53020.94;4975982;28;20030;-68
2022/07/13 08:32:12;;;;;;;4.80;1.60;;;;;;;-144.47;35.31;53058.69;4975750;28;20113;-69
2022/07/13 08:40:08;;;;;;;11.05;2.08;;;;;;;-144.47;34.87;53070.59;4977467;28;20084;-67
2022/07/13 08:42:38;;;;;;;5.50;1.67;;;;;;;-144.47;34.93;53050.75;4975169;28;20035;-70
2022/07/13 08:45:04;;;;;;;19.33;1.65;;;;;;;-144.47;34.39;53058.69;4975951;28;20039;-70
2022/07/13 08:47:29;;;;;;;4.43;1.63;;;;;;;-144.47;34.24;53032.88;4975146;28;20128;-69
2022/07/13 08:50:01;;;;;;;6.72;1.50;;;;;;;-144.47;34.39;53040.81;4973449;28;20038;-72
2022/07/13 08:52:28;;;;;;;4.07;1.30;;;;;;;-144.47;33.71;53050.75;4975216;28;20066;-69
2022/07/13 08:54:53;;;;;;;6.38;1.70;;;;;;;-144.47;34.05;53034.84;4973330;28;20035;-69
2022/07/13 08:57:19;;;;;;;7.00;2.05;;;;;;;-144.47;33.80;53080.53;4974663;28;20038;-69
2022/07/13 08:59:45;;;;;;;5.88;1.92;;;;;;;-144.47;33.64;53050.75;4974457;28;20034;-70
2022/07/13 09:02:11;;;;;;;7.22;1.55;;;;;;;-144.47;33.50;53030.88;4993143;23;20030;-66
2022/07/13 09:04:36;;;;;;;10.18;1.40;;;;;;;-144.47;33.56;53042.78;4969412;28;20042;-62
2022/07/13 09:07:02;;;;;;;4.80;1.48;;;;;;;-144.47;33.54;53050.75;4973619;28;20047;-66
2022/07/13 09:09:36;;;;;;;7.63;1.42;;;;;;;-144.47;33.27;53030.88;4969667;28;20030;-64
2022/07/13 09:12:18;;;;;;;8.90;1.50;;;;;;;-144.47;32.98;53020.94;4975881;28;20613;-64
2022/07/13 09:14:53;;;;;;;3.88;1.55;;;;;;;-144.47;33.10;53016.97;4971813;28;20055;-64
2022/07/13 09:17:31;;;;;;;6.00;1.35;;;;;;;-144.47;32.89;52993.13;4974570;28;20042;-66
2022/07/13 09:19:58;;;;;;;2.72;1.38;;;;;;;-144.47;33.08;53015.00;4972445;28;20026;-63
2022/07/13 09:22:23;;;;;;;9.18;1.77;;;;;;;-144.47;33.39;52997.09;4970973;28;20033;-65
2022/07/13 09:24:50;;;;;;;6.65;1.50;;;;;;;-144.47;32.70;53011.00;4975253;28;20036;-66
2022/07/13 09:27:17;;;;;;;4.35;1.63;;;;;;;-144.47;32.78;53015.00;4969331;28;20035;-65
2022/07/13 09:29:43;;;;;;;4.10;1.70;;;;;;;-144.47;32.97;53026.91;4973423;28;20034;-66
2022/07/13 09:32:11;;;;;;;6.07;1.40;;;;;;;-144.47;32.71;53026.91;4968839;28;20030;-65
2022/07/13 09:34:57;;;;;;;5.00;1.38;;;;;;;-144.47;32.95;53018.97;4969340;28;20496;-67
2022/07/13 09:37:26;;;;;;;5.38;1.30;;;;;;;-144.47;32.80;53052.72;4969920;28;20026;-67
2022/07/13 09:40:01;;;;;;;8.75;2.28;;;;;;;-144.47;32.74;53026.91;4973336;28;20129;-66
2022/07/13 09:42:28;;;;;;;8.27;1.27;;;;;;;-144.47;32.50;53030.88;4974161;28;20030;-64
2022/07/13 09:47:40;;;;;;;5.05;1.67;;;;;;;-144.47;32.85;53011.00;4977893;28;20260;-66
2022/07/13 09:50:06;;;;;;;2.65;1.27;;;;;;;-144.47;32.95;53011.00;4977255;28;20395;-67
2022/07/13 09:52:32;;;;;;;5.53;1.40;;;;;;;-144.47;32.88;53054.72;4973514;28;20033;-64
2022/07/13 09:54:58;;;;;;;5.70;1.67;;;;;;;-144.47;32.55;53060.66;4974942;28;20022;-65
2022/07/13 09:57:25;;;;;;;3.35;1.52;;;;;;;-144.47;32.41;53040.81;4974206;28;20038;-66
2022/07/13 09:59:52;;;;;;;5.35;1.70;;;;;;;-144.47;31.86;53015.00;4986363;28;20829;-65
2022/07/13 10:02:19;;;;;;;7.00;1.70;;;;;;;-144.47;32.08;53018.97;4973251;28;20104;-65
2022/07/13 10:04:47;;;;;;;3.85;1.73;;;;;;;-144.47;31.77;53042.78;4978497;28;20137;-66
2022/07/13 10:07:13;;;;;;;5.57;1.45;;;;;;;-144.47;31.67;53050.75;4977816;28;20110;-67
2022/07/13 10:09:39;;;;;;;5.72;1.40;;;;;;;-144.47;31.51;52995.13;4976805;28;20034;-66
2022/07/13 10:12:06;;;;;;;6.78;1.60;;;;;;;-144.47;30.51;53030.88;4976483;28;20055;-64
2022/07/13 10:14:32;;;;;;;1.50;1.00;;;;;;;-144.47;30.34;53005.06;4974506;28;20052;-64
2022/07/13 10:16:59;;;;;;;7.47;1.58;;;;;;;-144.47;29.97;52983.22;4973011;28;20508;-64
2022/07/13 10:19:25;;;;;;;2.45;1.30;;;;;;;-144.47;29.48;53028.88;4973587;28;20034;-65
2022/07/13 10:22:05;;;;;;;7.45;1.70;;;;;;;-144.47;29.48;53009.03;4971611;28;20040;-65
2022/07/13 10:24:30;;;;;;;4.15;1.38;;;;;;;-144.47;30.11;52983.22;4975556;28;20046;-66
2022/07/13 10:27:18;;;;;;;3.05;1.38;;;;;;;-144.47;30.72;52975.25;4977580;28;20106;-66
2022/07/13 10:29:51;;;;;;;5.20;1.65;;;;;;;-144.47;29.82;52943.47;4976329;28;20289;-67
2022/07/13 10:32:21;;;;;;;6.53;1.40;;;;;;;-144.47;30.09;52979.22;4973914;28;20062;-64
2022/07/13 10:34:58;;;;;;;2.05;1.00;;;;;;;-144.47;30.07;52997.09;4982009;28;20050;-67
2022/07/13 10:37:25;;;;;;;2.47;1.35;;;;;;;-144.47;30.04;52973.28;4978118;28;20692;-67
2022/07/13 10:40:12;;;;;;;4.63;1.40;;;;;;;-144.47;28.72;52997.09;4974281;28;20049;-65
2022/07/13 10:43:04;;;;;;;6.68;1.10;;;;;;;-144.47;27.74;52995.13;4975903;28;20073;-65
2022/07/13 10:45:32;;;;;;;2.67;1.15;;;;;;;-144.47;27.85;52995.13;4979643;28;20057;-65
2022/07/13 10:47:59;;;;;;;4.55;1.00;;;;;;;-144.47;27.60;53007.03;4978602;28;20042;-65
2022/07/13 10:50:34;;;;;;;3.28;1.52;;;;;;;-144.47;28.31;53003.06;4977129;28;20040;-67
2022/07/13 10:53:00;;;;;;;8.00;1.50;;;;;;;-144.47;29.22;52991.16;4970713;28;20027;-66
2022/07/13 10:55:30;;;;;;;4.03;1.30;;;;;;;-144.47;29.31;53003.06;4976372;28;20392;-64
2022/07/13 10:57:56;;;;;;;2.92;1.33;;;;;;;-144.47;28.26;52981.22;4975374;28;20030;-67
2022/07/13 11:00:37;;;;;;;3.45;1.42;;;;;;;-144.47;28.69;52991.16;4979051;28;20034;-65
2022/07/13 11:03:06;;;;;;;5.13;1.40;;;;;;;-144.47;28.44;52969.31;4970114;28;20058;-65
2022/07/13 11:05:35;;;;;;;3.47;1.33;;;;;;;-144.47;28.57;52971.28;4978181;28;20146;-66
2022/07/13 11:08:12;;;;;;;5.07;1.67;;;;;;;-144.47;28.88;53009.03;4977168;28;20107;-67
2022/07/13 11:10:38;;;;;;;6.32;1.58;;;;;;;-144.47;28.67;52999.09;4975059;28;20049;-66
2022/07/13 11:13:03;;;;;;;5.65;1.38;;;;;;;-144.47;28.92;52991.16;4973015;28;20039;-66
2022/07/13 11:15:44;;;;;;;5.50;1.40;;;;;;;-144.47;28.95;52979.22;4974714;28;20053;-67
2022/07/13 11:18:24;;;;;;;5.28;1.40;;;;;;;-144.47;28.00;53007.03;4974086;28;20053;-66
2022/07/13 11:21:12;;;;;;;3.50;1.40;;;;;;;-144.47;27.49;52969.31;4972771;28;20038;-66